sensor_id;sensor_type;location;lat;lon;timestamp;P1;durP1;ratioP1;P2;durP2;ratioP2
85303;SDS011;75708;47.930;13.782;2024-01-30T00:01:42;13.75;;;5.40;;
85303;SDS011;75708;47.930;13.782;2024-01-30T00:04:07;9.38;;;5.07;;
85303;SDS011;75708;47.930;13.782;2024-01-30T00:06:33;11.10;;;5.63;;
85303;SDS011;75708;47.930;13.782;2024-01-30T00:08:58;9.63;;;4.00;;
85303;SDS011;75708;47.930;13.782;2024-01-30T00:11:24;8.75;;;3.95;;
85303;SDS011;75708;47.930;13.782;2024-01-30T00:13:54;8.65;;;4.60;;
85303;SDS011;75708;47.930;13.782;2024-01-30T00:16:24;9.77;;;4.50;;
85303;SDS011;75708;47.930;13.782;2024-01-30T00:18:50;8.85;;;4.10;;
85303;SDS011;75708;47.930;13.782;2024-01-30T00:21:17;8.23;;;4.20;;
85303;SDS011;75708;47.930;13.782;2024-01-30T00:23:43;6.95;;;4.03;;
85303;SDS011;75708;47.930;13.782;2024-01-30T00:26:08;11.15;;;4.45;;
85303;SDS011;75708;47.930;13.782;2024-01-30T00:28:34;6.05;;;3.67;;
85303;SDS011;75708;47.930;13.782;2024-01-30T00:31:00;7.47;;;4.05;;
85303;SDS011;75708;47.930;13.782;2024-01-30T00:33:25;6.53;;;4.15;;
85303;SDS011;75708;47.930;13.782;2024-01-30T00:35:51;6.88;;;3.45;;
85303;SDS011;75708;47.930;13.782;2024-01-30T00:38:16;8.27;;;3.20;;
85303;SDS011;75708;47.930;13.782;2024-01-30T00:40:42;6.03;;;3.00;;
85303;SDS011;75708;47.930;13.782;2024-01-30T00:43:08;8.65;;;3.20;;
85303;SDS011;75708;47.930;13.782;2024-01-30T00:45:33;6.03;;;2.65;;
85303;SDS011;75708;47.930;13.782;2024-01-30T00:47:59;6.22;;;3.22;;
85303;SDS011;75708;47.930;13.782;2024-01-30T00:50:25;8.13;;;4.28;;
85303;SDS011;75708;47.930;13.782;2024-01-30T00:52:50;8.70;;;4.13;;
85303;SDS011;75708;47.930;13.782;2024-01-30T00:55:16;11.65;;;4.05;;
85303;SDS011;75708;47.930;13.782;2024-01-30T00:57:41;10.75;;;5.20;;
85303;SDS011;75708;47.930;13.782;2024-01-30T01:00:07;12.45;;;6.45;;
85303;SDS011;75708;47.930;13.782;2024-01-30T01:02:37;13.50;;;6.45;;
85303;SDS011;75708;47.930;13.782;2024-01-30T01:05:04;14.88;;;7.18;;
85303;SDS011;75708;47.930;13.782;2024-01-30T01:07:30;14.60;;;7.80;;
85303;SDS011;75708;47.930;13.782;2024-01-30T01:09:55;19.10;;;8.15;;
85303;SDS011;75708;47.930;13.782;2024-01-30T01:12:21;17.00;;;8.27;;
85303;SDS011;75708;47.930;13.782;2024-01-30T01:14:47;20.27;;;9.35;;
85303;SDS011;75708;47.930;13.782;2024-01-30T01:17:12;16.17;;;7.95;;
85303;SDS011;75708;47.930;13.782;2024-01-30T01:19:38;15.52;;;6.63;;
85303;SDS011;75708;47.930;13.782;2024-01-30T01:22:03;10.02;;;5.03;;
85303;SDS011;75708;47.930;13.782;2024-01-30T01:24:31;10.65;;;4.60;;
85303;SDS011;75708;47.930;13.782;2024-01-30T01:26:58;6.85;;;3.80;;
85303;SDS011;75708;47.930;13.782;2024-01-30T01:29:24;6.13;;;3.38;;
85303;SDS011;75708;47.930;13.782;2024-01-30T01:31:56;7.30;;;3.53;;
85303;SDS011;75708;47.930;13.782;2024-01-30T01:34:21;7.47;;;4.13;;
85303;SDS011;75708;47.930;13.782;2024-01-30T01:36:48;9.73;;;4.95;;
85303;SDS011;75708;47.930;13.782;2024-01-30T01:39:15;16.50;;;6.95;;
85303;SDS011;75708;47.930;13.782;2024-01-30T01:41:40;16.80;;;8.32;;
85303;SDS011;75708;47.930;13.782;2024-01-30T01:44:07;18.92;;;8.63;;
85303;SDS011;75708;47.930;13.782;2024-01-30T01:46:32;21.20;;;10.00;;
85303;SDS011;75708;47.930;13.782;2024-01-30T01:48:59;26.77;;;10.82;;
85303;SDS011;75708;47.930;13.782;2024-01-30T01:51:27;21.42;;;10.45;;
85303;SDS011;75708;47.930;13.782;2024-01-30T01:53:55;25.35;;;10.43;;
85303;SDS011;75708;47.930;13.782;2024-01-30T01:56:21;37.60;;;10.95;;
85303;SDS011;75708;47.930;13.782;2024-01-30T01:58:48;87.28;;;15.93;;
85303;SDS011;75708;47.930;13.782;2024-01-30T02:01:15;37.13;;;15.23;;
85303;SDS011;75708;47.930;13.782;2024-01-30T02:03:44;65.38;;;16.17;;
85303;SDS011;75708;47.930;13.782;2024-01-30T02:06:10;62.33;;;18.60;;
85303;SDS011;75708;47.930;13.782;2024-01-30T02:08:37;58.25;;;17.30;;
85303;SDS011;75708;47.930;13.782;2024-01-30T02:11:03;33.38;;;14.65;;
85303;SDS011;75708;47.930;13.782;2024-01-30T02:13:29;35.22;;;15.63;;
85303;SDS011;75708;47.930;13.782;2024-01-30T02:15:54;34.45;;;13.40;;
85303;SDS011;75708;47.930;13.782;2024-01-30T02:18:20;37.38;;;14.65;;
85303;SDS011;75708;47.930;13.782;2024-01-30T02:20:48;29.25;;;10.88;;
85303;SDS011;75708;47.930;13.782;2024-01-30T02:23:16;16.50;;;7.82;;
85303;SDS011;75708;47.930;13.782;2024-01-30T02:25:42;13.25;;;5.18;;
85303;SDS011;75708;47.930;13.782;2024-01-30T02:28:11;14.77;;;7.45;;
85303;SDS011;75708;47.930;13.782;2024-01-30T02:30:37;21.05;;;9.35;;
85303;SDS011;75708;47.930;13.782;2024-01-30T02:33:04;24.35;;;11.52;;
85303;SDS011;75708;47.930;13.782;2024-01-30T02:35:29;28.13;;;12.35;;
85303;SDS011;75708;47.930;13.782;2024-01-30T02:37:55;28.98;;;13.77;;
85303;SDS011;75708;47.930;13.782;2024-01-30T02:40:20;34.72;;;13.68;;
85303;SDS011;75708;47.930;13.782;2024-01-30T02:42:46;33.83;;;14.43;;
85303;SDS011;75708;47.930;13.782;2024-01-30T02:45:11;26.38;;;12.95;;
85303;SDS011;75708;47.930;13.782;2024-01-30T02:47:38;31.55;;;14.27;;
85303;SDS011;75708;47.930;13.782;2024-01-30T02:50:04;31.60;;;13.82;;
85303;SDS011;75708;47.930;13.782;2024-01-30T02:52:30;34.47;;;14.77;;
85303;SDS011;75708;47.930;13.782;2024-01-30T02:54:55;34.60;;;15.07;;
85303;SDS011;75708;47.930;13.782;2024-01-30T02:57:21;31.00;;;13.40;;
85303;SDS011;75708;47.930;13.782;2024-01-30T02:59:46;31.35;;;13.48;;
85303;SDS011;75708;47.930;13.782;2024-01-30T03:02:12;31.02;;;13.50;;
85303;SDS011;75708;47.930;13.782;2024-01-30T03:04:37;30.90;;;14.13;;
85303;SDS011;75708;47.930;13.782;2024-01-30T03:07:06;32.63;;;13.68;;
85303;SDS011;75708;47.930;13.782;2024-01-30T03:09:31;34.63;;;13.85;;
85303;SDS011;75708;47.930;13.782;2024-01-30T03:11:57;29.95;;;14.20;;
85303;SDS011;75708;47.930;13.782;2024-01-30T03:14:22;25.23;;;13.30;;
85303;SDS011;75708;47.930;13.782;2024-01-30T03:16:48;31.10;;;14.23;;
85303;SDS011;75708;47.930;13.782;2024-01-30T03:19:13;29.27;;;13.52;;
85303;SDS011;75708;47.930;13.782;2024-01-30T03:21:39;37.40;;;15.55;;
85303;SDS011;75708;47.930;13.782;2024-01-30T03:24:04;26.75;;;13.60;;
85303;SDS011;75708;47.930;13.782;2024-01-30T03:26:30;36.58;;;16.02;;
85303;SDS011;75708;47.930;13.782;2024-01-30T03:28:56;32.63;;;15.00;;
85303;SDS011;75708;47.930;13.782;2024-01-30T03:31:21;34.92;;;15.45;;
85303;SDS011;75708;47.930;13.782;2024-01-30T03:33:47;36.78;;;14.60;;
85303;SDS011;75708;47.930;13.782;2024-01-30T03:36:13;28.50;;;13.35;;
85303;SDS011;75708;47.930;13.782;2024-01-30T03:38:40;23.60;;;10.60;;
85303;SDS011;75708;47.930;13.782;2024-01-30T03:41:07;21.85;;;11.00;;
85303;SDS011;75708;47.930;13.782;2024-01-30T03:43:34;21.30;;;10.20;;
85303;SDS011;75708;47.930;13.782;2024-01-30T03:46:00;21.48;;;9.77;;
85303;SDS011;75708;47.930;13.782;2024-01-30T03:48:26;18.55;;;8.40;;
85303;SDS011;75708;47.930;13.782;2024-01-30T03:50:51;20.50;;;9.82;;
85303;SDS011;75708;47.930;13.782;2024-01-30T03:53:17;13.30;;;7.35;;
85303;SDS011;75708;47.930;13.782;2024-01-30T03:55:43;16.52;;;7.40;;
85303;SDS011;75708;47.930;13.782;2024-01-30T03:58:08;14.52;;;6.53;;
85303;SDS011;75708;47.930;13.782;2024-01-30T04:00:34;16.45;;;6.90;;
85303;SDS011;75708;47.930;13.782;2024-01-30T04:03:00;24.50;;;11.10;;
85303;SDS011;75708;47.930;13.782;2024-01-30T04:05:26;22.45;;;11.80;;
85303;SDS011;75708;47.930;13.782;2024-01-30T04:07:51;26.05;;;11.95;;
85303;SDS011;75708;47.930;13.782;2024-01-30T04:10:17;31.92;;;14.52;;
85303;SDS011;75708;47.930;13.782;2024-01-30T04:12:42;25.70;;;12.23;;
85303;SDS011;75708;47.930;13.782;2024-01-30T04:15:08;26.80;;;11.90;;
85303;SDS011;75708;47.930;13.782;2024-01-30T04:17:33;25.27;;;11.73;;
85303;SDS011;75708;47.930;13.782;2024-01-30T04:19:59;26.45;;;11.70;;
85303;SDS011;75708;47.930;13.782;2024-01-30T04:22:25;30.10;;;14.18;;
85303;SDS011;75708;47.930;13.782;2024-01-30T04:24:50;31.02;;;13.10;;
85303;SDS011;75708;47.930;13.782;2024-01-30T04:27:16;29.17;;;12.85;;
85303;SDS011;75708;47.930;13.782;2024-01-30T04:29:41;30.75;;;15.20;;
85303;SDS011;75708;47.930;13.782;2024-01-30T04:32:07;30.23;;;15.13;;
85303;SDS011;75708;47.930;13.782;2024-01-30T04:34:32;31.60;;;14.50;;
85303;SDS011;75708;47.930;13.782;2024-01-30T04:36:58;34.78;;;16.27;;
85303;SDS011;75708;47.930;13.782;2024-01-30T04:39:23;32.08;;;12.73;;
85303;SDS011;75708;47.930;13.782;2024-01-30T04:41:49;30.00;;;15.35;;
85303;SDS011;75708;47.930;13.782;2024-01-30T04:44:14;33.47;;;14.95;;
85303;SDS011;75708;47.930;13.782;2024-01-30T04:46:40;29.33;;;13.82;;
85303;SDS011;75708;47.930;13.782;2024-01-30T04:49:05;28.80;;;13.65;;
85303;SDS011;75708;47.930;13.782;2024-01-30T04:51:33;30.67;;;13.13;;
85303;SDS011;75708;47.930;13.782;2024-01-30T04:53:58;27.35;;;13.50;;
85303;SDS011;75708;47.930;13.782;2024-01-30T04:56:24;31.65;;;13.27;;
85303;SDS011;75708;47.930;13.782;2024-01-30T04:58:50;30.63;;;13.80;;
85303;SDS011;75708;47.930;13.782;2024-01-30T05:01:15;29.45;;;13.30;;
85303;SDS011;75708;47.930;13.782;2024-01-30T05:03:42;22.08;;;10.90;;
85303;SDS011;75708;47.930;13.782;2024-01-30T05:06:07;29.42;;;12.20;;
85303;SDS011;75708;47.930;13.782;2024-01-30T05:08:33;29.15;;;13.85;;
85303;SDS011;75708;47.930;13.782;2024-01-30T05:11:01;30.45;;;13.73;;
85303;SDS011;75708;47.930;13.782;2024-01-30T05:13:29;38.53;;;14.80;;
85303;SDS011;75708;47.930;13.782;2024-01-30T05:15:55;30.38;;;14.02;;
85303;SDS011;75708;47.930;13.782;2024-01-30T05:18:21;27.98;;;11.93;;
85303;SDS011;75708;47.930;13.782;2024-01-30T05:20:46;37.70;;;14.73;;
85303;SDS011;75708;47.930;13.782;2024-01-30T05:23:12;29.67;;;13.07;;
85303;SDS011;75708;47.930;13.782;2024-01-30T05:25:37;28.27;;;12.25;;
85303;SDS011;75708;47.930;13.782;2024-01-30T05:28:03;22.55;;;9.88;;
85303;SDS011;75708;47.930;13.782;2024-01-30T05:30:28;21.20;;;9.57;;
85303;SDS011;75708;47.930;13.782;2024-01-30T05:32:54;20.90;;;7.97;;
85303;SDS011;75708;47.930;13.782;2024-01-30T05:35:19;12.57;;;7.00;;
85303;SDS011;75708;47.930;13.782;2024-01-30T05:37:47;18.00;;;8.70;;
85303;SDS011;75708;47.930;13.782;2024-01-30T05:40:16;20.02;;;9.90;;
85303;SDS011;75708;47.930;13.782;2024-01-30T05:42:41;17.67;;;8.60;;
85303;SDS011;75708;47.930;13.782;2024-01-30T05:45:07;16.27;;;7.70;;
85303;SDS011;75708;47.930;13.782;2024-01-30T05:47:33;13.23;;;6.75;;
85303;SDS011;75708;47.930;13.782;2024-01-30T05:49:59;20.15;;;8.35;;
85303;SDS011;75708;47.930;13.782;2024-01-30T05:52:25;18.63;;;8.25;;
85303;SDS011;75708;47.930;13.782;2024-01-30T05:54:50;15.55;;;9.30;;
85303;SDS011;75708;47.930;13.782;2024-01-30T05:57:16;21.00;;;11.07;;
85303;SDS011;75708;47.930;13.782;2024-01-30T05:59:42;28.48;;;12.63;;
85303;SDS011;75708;47.930;13.782;2024-01-30T06:02:10;23.35;;;10.95;;
85303;SDS011;75708;47.930;13.782;2024-01-30T06:04:36;26.55;;;12.68;;
85303;SDS011;75708;47.930;13.782;2024-01-30T06:07:02;30.83;;;11.82;;
85303;SDS011;75708;47.930;13.782;2024-01-30T06:09:27;28.90;;;12.60;;
85303;SDS011;75708;47.930;13.782;2024-01-30T06:11:54;29.95;;;13.52;;
85303;SDS011;75708;47.930;13.782;2024-01-30T06:14:20;32.42;;;14.13;;
85303;SDS011;75708;47.930;13.782;2024-01-30T06:16:45;34.08;;;13.63;;
85303;SDS011;75708;47.930;13.782;2024-01-30T06:19:11;31.55;;;14.63;;
85303;SDS011;75708;47.930;13.782;2024-01-30T06:21:36;31.15;;;13.13;;
85303;SDS011;75708;47.930;13.782;2024-01-30T06:24:03;38.60;;;13.95;;
85303;SDS011;75708;47.930;13.782;2024-01-30T06:26:29;29.00;;;13.57;;
85303;SDS011;75708;47.930;13.782;2024-01-30T06:28:54;32.63;;;14.80;;
85303;SDS011;75708;47.930;13.782;2024-01-30T06:31:20;35.58;;;15.25;;
85303;SDS011;75708;47.930;13.782;2024-01-30T06:33:46;28.15;;;13.35;;
85303;SDS011;75708;47.930;13.782;2024-01-30T06:36:12;31.27;;;14.93;;
85303;SDS011;75708;47.930;13.782;2024-01-30T06:38:38;37.20;;;14.50;;
85303;SDS011;75708;47.930;13.782;2024-01-30T06:41:03;32.40;;;14.48;;
85303;SDS011;75708;47.930;13.782;2024-01-30T06:43:29;27.10;;;14.27;;
85303;SDS011;75708;47.930;13.782;2024-01-30T06:45:54;30.15;;;12.40;;
85303;SDS011;75708;47.930;13.782;2024-01-30T06:48:20;28.85;;;14.15;;
85303;SDS011;75708;47.930;13.782;2024-01-30T06:50:45;28.10;;;13.55;;
85303;SDS011;75708;47.930;13.782;2024-01-30T06:53:11;37.28;;;14.52;;
85303;SDS011;75708;47.930;13.782;2024-01-30T06:55:36;30.10;;;14.40;;
85303;SDS011;75708;47.930;13.782;2024-01-30T06:58:02;28.67;;;13.98;;
85303;SDS011;75708;47.930;13.782;2024-01-30T07:00:28;31.77;;;14.73;;
85303;SDS011;75708;47.930;13.782;2024-01-30T07:02:53;30.25;;;14.43;;
85303;SDS011;75708;47.930;13.782;2024-01-30T07:05:19;26.80;;;12.02;;
85303;SDS011;75708;47.930;13.782;2024-01-30T07:07:44;38.40;;;16.75;;
85303;SDS011;75708;47.930;13.782;2024-01-30T07:10:10;36.95;;;15.75;;
85303;SDS011;75708;47.930;13.782;2024-01-30T07:12:35;36.63;;;15.95;;
85303;SDS011;75708;47.930;13.782;2024-01-30T07:15:01;29.30;;;13.73;;
85303;SDS011;75708;47.930;13.782;2024-01-30T07:17:28;24.48;;;12.52;;
85303;SDS011;75708;47.930;13.782;2024-01-30T07:19:53;18.60;;;8.88;;
85303;SDS011;75708;47.930;13.782;2024-01-30T07:22:19;23.83;;;10.63;;
85303;SDS011;75708;47.930;13.782;2024-01-30T07:24:44;27.67;;;13.05;;
85303;SDS011;75708;47.930;13.782;2024-01-30T07:27:12;25.85;;;13.13;;
85303;SDS011;75708;47.930;13.782;2024-01-30T07:29:38;23.27;;;12.10;;
85303;SDS011;75708;47.930;13.782;2024-01-30T07:32:03;22.40;;;11.68;;
85303;SDS011;75708;47.930;13.782;2024-01-30T07:34:29;19.80;;;11.60;;
85303;SDS011;75708;47.930;13.782;2024-01-30T07:36:55;24.45;;;12.55;;
85303;SDS011;75708;47.930;13.782;2024-01-30T07:39:20;19.10;;;12.32;;
85303;SDS011;75708;47.930;13.782;2024-01-30T07:41:46;20.52;;;12.77;;
85303;SDS011;75708;47.930;13.782;2024-01-30T07:44:11;24.40;;;13.00;;
85303;SDS011;75708;47.930;13.782;2024-01-30T07:46:37;21.98;;;12.10;;
85303;SDS011;75708;47.930;13.782;2024-01-30T07:49:02;25.05;;;13.18;;
85303;SDS011;75708;47.930;13.782;2024-01-30T07:51:28;20.02;;;12.15;;
85303;SDS011;75708;47.930;13.782;2024-01-30T07:53:54;25.48;;;13.65;;
85303;SDS011;75708;47.930;13.782;2024-01-30T07:56:20;22.73;;;13.55;;
85303;SDS011;75708;47.930;13.782;2024-01-30T07:58:45;25.42;;;14.32;;
85303;SDS011;75708;47.930;13.782;2024-01-30T08:01:11;31.70;;;14.27;;
85303;SDS011;75708;47.930;13.782;2024-01-30T08:03:36;24.52;;;13.93;;
85303;SDS011;75708;47.930;13.782;2024-01-30T08:06:04;23.73;;;13.60;;
85303;SDS011;75708;47.930;13.782;2024-01-30T08:08:31;23.27;;;12.18;;
85303;SDS011;75708;47.930;13.782;2024-01-30T08:10:57;23.60;;;13.15;;
85303;SDS011;75708;47.930;13.782;2024-01-30T08:13:22;22.63;;;13.57;;
85303;SDS011;75708;47.930;13.782;2024-01-30T08:15:48;27.42;;;14.93;;
85303;SDS011;75708;47.930;13.782;2024-01-30T08:18:14;23.17;;;13.40;;
85303;SDS011;75708;47.930;13.782;2024-01-30T08:20:39;23.73;;;13.57;;
85303;SDS011;75708;47.930;13.782;2024-01-30T08:23:05;27.15;;;14.05;;
85303;SDS011;75708;47.930;13.782;2024-01-30T08:25:30;27.10;;;13.57;;
85303;SDS011;75708;47.930;13.782;2024-01-30T08:27:56;25.88;;;13.50;;
85303;SDS011;75708;47.930;13.782;2024-01-30T08:30:22;28.35;;;14.40;;
85303;SDS011;75708;47.930;13.782;2024-01-30T08:32:47;26.10;;;13.73;;
85303;SDS011;75708;47.930;13.782;2024-01-30T08:35:13;20.50;;;12.55;;
85303;SDS011;75708;47.930;13.782;2024-01-30T08:37:40;30.90;;;15.93;;
85303;SDS011;75708;47.930;13.782;2024-01-30T08:40:07;30.92;;;14.50;;
85303;SDS011;75708;47.930;13.782;2024-01-30T08:42:33;38.22;;;16.70;;
85303;SDS011;75708;47.930;13.782;2024-01-30T08:44:59;28.48;;;16.33;;
85303;SDS011;75708;47.930;13.782;2024-01-30T08:47:24;30.90;;;16.52;;
85303;SDS011;75708;47.930;13.782;2024-01-30T08:49:50;38.22;;;17.23;;
85303;SDS011;75708;47.930;13.782;2024-01-30T08:52:16;41.08;;;20.67;;
85303;SDS011;75708;47.930;13.782;2024-01-30T08:54:42;30.42;;;16.67;;
85303;SDS011;75708;47.930;13.782;2024-01-30T08:57:08;48.13;;;27.95;;
85303;SDS011;75708;47.930;13.782;2024-01-30T08:59:33;30.08;;;16.73;;
85303;SDS011;75708;47.930;13.782;2024-01-30T09:01:59;41.60;;;26.20;;
85303;SDS011;75708;47.930;13.782;2024-01-30T09:04:25;30.30;;;15.80;;
85303;SDS011;75708;47.930;13.782;2024-01-30T09:06:50;27.40;;;15.95;;
85303;SDS011;75708;47.930;13.782;2024-01-30T09:09:16;31.15;;;17.10;;
85303;SDS011;75708;47.930;13.782;2024-01-30T09:11:42;36.15;;;17.85;;
85303;SDS011;75708;47.930;13.782;2024-01-30T09:14:08;35.03;;;18.27;;
85303;SDS011;75708;47.930;13.782;2024-01-30T09:16:34;32.00;;;16.15;;
85303;SDS011;75708;47.930;13.782;2024-01-30T09:18:59;33.20;;;17.58;;
85303;SDS011;75708;47.930;13.782;2024-01-30T09:21:25;35.47;;;16.85;;
85303;SDS011;75708;47.930;13.782;2024-01-30T09:23:53;40.40;;;17.98;;
85303;SDS011;75708;47.930;13.782;2024-01-30T09:26:20;35.28;;;18.45;;
85303;SDS011;75708;47.930;13.782;2024-01-30T09:28:45;39.55;;;19.63;;
85303;SDS011;75708;47.930;13.782;2024-01-30T09:31:11;38.65;;;18.75;;
85303;SDS011;75708;47.930;13.782;2024-01-30T09:33:37;37.30;;;18.45;;
85303;SDS011;75708;47.930;13.782;2024-01-30T09:36:04;36.65;;;18.02;;
85303;SDS011;75708;47.930;13.782;2024-01-30T09:38:30;34.05;;;17.95;;
85303;SDS011;75708;47.930;13.782;2024-01-30T09:40:56;36.03;;;19.10;;
85303;SDS011;75708;47.930;13.782;2024-01-30T09:43:28;32.83;;;18.33;;
85303;SDS011;75708;47.930;13.782;2024-01-30T09:45:58;32.65;;;16.85;;
85303;SDS011;75708;47.930;13.782;2024-01-30T09:50:54;34.95;;;17.27;;
85303;SDS011;75708;47.930;13.782;2024-01-30T09:53:21;30.38;;;16.45;;
85303;SDS011;75708;47.930;13.782;2024-01-30T09:55:47;30.30;;;15.82;;
85303;SDS011;75708;47.930;13.782;2024-01-30T09:58:16;26.98;;;15.27;;
85303;SDS011;75708;47.930;13.782;2024-01-30T10:00:41;29.42;;;17.05;;
85303;SDS011;75708;47.930;13.782;2024-01-30T10:03:07;26.00;;;14.63;;
85303;SDS011;75708;47.930;13.782;2024-01-30T10:05:34;25.05;;;15.63;;
85303;SDS011;75708;47.930;13.782;2024-01-30T10:08:05;23.98;;;14.07;;
85303;SDS011;75708;47.930;13.782;2024-01-30T10:10:31;26.42;;;15.30;;
85303;SDS011;75708;47.930;13.782;2024-01-30T10:12:57;27.13;;;15.32;;
85303;SDS011;75708;47.930;13.782;2024-01-30T10:15:22;24.63;;;15.85;;
85303;SDS011;75708;47.930;13.782;2024-01-30T10:17:49;24.80;;;15.27;;
85303;SDS011;75708;47.930;13.782;2024-01-30T10:20:14;27.40;;;15.80;;
85303;SDS011;75708;47.930;13.782;2024-01-30T10:22:42;25.38;;;15.73;;
85303;SDS011;75708;47.930;13.782;2024-01-30T10:25:09;26.33;;;15.70;;
85303;SDS011;75708;47.930;13.782;2024-01-30T10:27:36;23.95;;;14.75;;
85303;SDS011;75708;47.930;13.782;2024-01-30T10:30:01;27.08;;;15.38;;
85303;SDS011;75708;47.930;13.782;2024-01-30T10:32:29;28.45;;;16.92;;
85303;SDS011;75708;47.930;13.782;2024-01-30T10:34:54;30.55;;;16.63;;
85303;SDS011;75708;47.930;13.782;2024-01-30T10:37:20;29.13;;;18.02;;
85303;SDS011;75708;47.930;13.782;2024-01-30T10:39:50;28.50;;;16.77;;
85303;SDS011;75708;47.930;13.782;2024-01-30T10:42:20;33.70;;;18.23;;
85303;SDS011;75708;47.930;13.782;2024-01-30T10:47:25;34.00;;;17.90;;
85303;SDS011;75708;47.930;13.782;2024-01-30T10:49:52;41.42;;;18.70;;
85303;SDS011;75708;47.930;13.782;2024-01-30T10:52:19;33.05;;;18.02;;
85303;SDS011;75708;47.930;13.782;2024-01-30T10:54:45;30.85;;;17.17;;
85303;SDS011;75708;47.930;13.782;2024-01-30T10:57:12;30.60;;;16.70;;
85303;SDS011;75708;47.930;13.782;2024-01-30T10:59:40;27.10;;;15.85;;
85303;SDS011;75708;47.930;13.782;2024-01-30T11:02:07;26.60;;;15.45;;
85303;SDS011;75708;47.930;13.782;2024-01-30T11:04:38;24.95;;;14.52;;
85303;SDS011;75708;47.930;13.782;2024-01-30T11:09:41;25.77;;;14.95;;
85303;SDS011;75708;47.930;13.782;2024-01-30T11:12:14;27.15;;;16.02;;
85303;SDS011;75708;47.930;13.782;2024-01-30T11:14:39;24.33;;;15.90;;
85303;SDS011;75708;47.930;13.782;2024-01-30T11:17:05;23.40;;;14.05;;
85303;SDS011;75708;47.930;13.782;2024-01-30T11:19:31;25.45;;;15.27;;
85303;SDS011;75708;47.930;13.782;2024-01-30T11:21:57;24.60;;;14.55;;
85303;SDS011;75708;47.930;13.782;2024-01-30T11:24:23;24.58;;;14.50;;
85303;SDS011;75708;47.930;13.782;2024-01-30T11:26:49;27.70;;;15.85;;
85303;SDS011;75708;47.930;13.782;2024-01-30T11:29:24;25.73;;;16.10;;
85303;SDS011;75708;47.930;13.782;2024-01-30T11:31:54;24.20;;;14.57;;
85303;SDS011;75708;47.930;13.782;2024-01-30T11:34:20;25.80;;;15.68;;
85303;SDS011;75708;47.930;13.782;2024-01-30T11:36:53;24.83;;;14.23;;
85303;SDS011;75708;47.930;13.782;2024-01-30T11:39:27;24.50;;;14.30;;
85303;SDS011;75708;47.930;13.782;2024-01-30T11:41:54;26.85;;;15.43;;
85303;SDS011;75708;47.930;13.782;2024-01-30T11:44:20;28.92;;;16.00;;
85303;SDS011;75708;47.930;13.782;2024-01-30T11:46:50;23.92;;;14.38;;
85303;SDS011;75708;47.930;13.782;2024-01-30T11:49:17;28.98;;;16.50;;
85303;SDS011;75708;47.930;13.782;2024-01-30T11:51:47;27.25;;;14.32;;
85303;SDS011;75708;47.930;13.782;2024-01-30T11:54:14;27.77;;;15.60;;
85303;SDS011;75708;47.930;13.782;2024-01-30T11:56:41;27.65;;;16.40;;
85303;SDS011;75708;47.930;13.782;2024-01-30T11:59:07;26.30;;;15.43;;
85303;SDS011;75708;47.930;13.782;2024-01-30T12:01:32;29.27;;;16.23;;
85303;SDS011;75708;47.930;13.782;2024-01-30T12:03:59;24.25;;;14.65;;
85303;SDS011;75708;47.930;13.782;2024-01-30T12:06:25;23.23;;;13.93;;
85303;SDS011;75708;47.930;13.782;2024-01-30T12:09:00;25.40;;;14.13;;
85303;SDS011;75708;47.930;13.782;2024-01-30T12:11:30;23.92;;;13.82;;
85303;SDS011;75708;47.930;13.782;2024-01-30T12:13:56;23.35;;;14.13;;
85303;SDS011;75708;47.930;13.782;2024-01-30T12:16:22;24.30;;;13.38;;
85303;SDS011;75708;47.930;13.782;2024-01-30T12:18:48;24.73;;;14.95;;
85303;SDS011;75708;47.930;13.782;2024-01-30T12:21:17;25.35;;;15.20;;
85303;SDS011;75708;47.930;13.782;2024-01-30T12:23:43;20.27;;;12.60;;
85303;SDS011;75708;47.930;13.782;2024-01-30T12:26:09;20.27;;;13.25;;
85303;SDS011;75708;47.930;13.782;2024-01-30T12:28:36;22.52;;;13.88;;
85303;SDS011;75708;47.930;13.782;2024-01-30T12:31:02;22.75;;;11.80;;
85303;SDS011;75708;47.930;13.782;2024-01-30T12:33:28;20.63;;;12.65;;
85303;SDS011;75708;47.930;13.782;2024-01-30T12:35:54;24.20;;;14.50;;
85303;SDS011;75708;47.930;13.782;2024-01-30T12:38:21;26.63;;;14.80;;
85303;SDS011;75708;47.930;13.782;2024-01-30T12:40:46;24.50;;;14.55;;
85303;SDS011;75708;47.930;13.782;2024-01-30T12:43:13;26.25;;;15.82;;
85303;SDS011;75708;47.930;13.782;2024-01-30T12:45:39;22.67;;;13.75;;
85303;SDS011;75708;47.930;13.782;2024-01-30T12:48:06;24.20;;;14.88;;
85303;SDS011;75708;47.930;13.782;2024-01-30T12:50:32;25.10;;;14.60;;
85303;SDS011;75708;47.930;13.782;2024-01-30T12:52:57;25.40;;;15.30;;
85303;SDS011;75708;47.930;13.782;2024-01-30T12:55:23;24.10;;;14.35;;
85303;SDS011;75708;47.930;13.782;2024-01-30T12:57:49;23.95;;;13.73;;
85303;SDS011;75708;47.930;13.782;2024-01-30T13:00:15;24.27;;;13.18;;
85303;SDS011;75708;47.930;13.782;2024-01-30T13:02:42;27.60;;;15.07;;
85303;SDS011;75708;47.930;13.782;2024-01-30T13:05:09;28.38;;;15.50;;
85303;SDS011;75708;47.930;13.782;2024-01-30T13:07:35;25.58;;;14.63;;
85303;SDS011;75708;47.930;13.782;2024-01-30T13:10:01;25.27;;;15.80;;
85303;SDS011;75708;47.930;13.782;2024-01-30T13:12:28;29.88;;;15.65;;
85303;SDS011;75708;47.930;13.782;2024-01-30T13:14:54;26.58;;;15.00;;
85303;SDS011;75708;47.930;13.782;2024-01-30T13:17:20;31.90;;;16.52;;
85303;SDS011;75708;47.930;13.782;2024-01-30T13:19:46;25.17;;;13.80;;
85303;SDS011;75708;47.930;13.782;2024-01-30T13:22:11;28.52;;;15.70;;
85303;SDS011;75708;47.930;13.782;2024-01-30T13:24:37;26.73;;;14.38;;
85303;SDS011;75708;47.930;13.782;2024-01-30T13:27:02;25.67;;;15.57;;
85303;SDS011;75708;47.930;13.782;2024-01-30T13:29:30;26.63;;;15.25;;
85303;SDS011;75708;47.930;13.782;2024-01-30T13:31:56;29.27;;;16.23;;
85303;SDS011;75708;47.930;13.782;2024-01-30T13:34:21;31.73;;;16.23;;
85303;SDS011;75708;47.930;13.782;2024-01-30T13:36:47;27.90;;;16.67;;
85303;SDS011;75708;47.930;13.782;2024-01-30T13:39:14;28.63;;;14.70;;
85303;SDS011;75708;47.930;13.782;2024-01-30T13:41:41;29.23;;;15.30;;
85303;SDS011;75708;47.930;13.782;2024-01-30T13:44:07;29.63;;;16.33;;
85303;SDS011;75708;47.930;13.782;2024-01-30T13:46:34;23.33;;;14.25;;
85303;SDS011;75708;47.930;13.782;2024-01-30T13:49:00;27.02;;;14.18;;
85303;SDS011;75708;47.930;13.782;2024-01-30T13:51:25;25.13;;;15.13;;
85303;SDS011;75708;47.930;13.782;2024-01-30T13:53:51;23.27;;;14.45;;
85303;SDS011;75708;47.930;13.782;2024-01-30T13:56:16;25.13;;;13.80;;
85303;SDS011;75708;47.930;13.782;2024-01-30T13:58:42;25.27;;;15.32;;
85303;SDS011;75708;47.930;13.782;2024-01-30T14:01:07;29.30;;;15.52;;
85303;SDS011;75708;47.930;13.782;2024-01-30T14:03:35;27.23;;;14.55;;
85303;SDS011;75708;47.930;13.782;2024-01-30T14:06:00;26.25;;;15.63;;
85303;SDS011;75708;47.930;13.782;2024-01-30T14:08:26;30.63;;;16.55;;
85303;SDS011;75708;47.930;13.782;2024-01-30T14:10:54;28.30;;;16.15;;
85303;SDS011;75708;47.930;13.782;2024-01-30T14:13:21;28.85;;;14.38;;